createdAt,value
2023-02-06T00:01:51.860Z,12.43
2023-02-06T00:04:54.994Z,9.82
2023-02-06T00:07:58.280Z,11.00
2023-02-06T00:11:11.075Z,11.30
2023-02-06T00:14:14.391Z,11.90
2023-02-06T00:17:17.546Z,11.48
2023-02-06T00:20:20.946Z,10.70
2023-02-06T00:23:24.182Z,10.90
2023-02-06T00:26:27.713Z,9.65
2023-02-06T00:29:30.982Z,12.47
2023-02-06T00:32:35.647Z,10.30
2023-02-06T00:35:38.903Z,10.95
2023-02-06T00:38:43.077Z,10.95
2023-02-06T00:41:46.411Z,12.80
2023-02-06T00:44:53.302Z,8.25
2023-02-06T00:47:56.582Z,12.60
2023-02-06T00:50:59.899Z,12.33
2023-02-06T00:54:03.184Z,10.60
2023-02-06T00:57:06.548Z,12.57
2023-02-06T01:00:10.605Z,10.33
2023-02-06T01:03:14.104Z,10.65
2023-02-06T01:06:19.080Z,12.60
2023-02-06T01:09:22.263Z,11.40
2023-02-06T01:12:25.531Z,10.25
2023-02-06T01:15:31.945Z,12.93
2023-02-06T01:18:35.201Z,11.98
2023-02-06T01:21:39.353Z,12.63
2023-02-06T01:24:42.628Z,12.68
2023-02-06T01:27:47.358Z,10.70
2023-02-06T01:30:51.412Z,9.37
2023-02-06T01:33:55.379Z,11.48
2023-02-06T01:36:58.527Z,8.98
2023-02-06T01:40:02.192Z,11.15
2023-02-06T01:43:12.555Z,12.20
2023-02-06T01:46:15.915Z,9.45
2023-02-06T01:49:48.735Z,12.07
2023-02-06T01:52:52.501Z,12.30
2023-02-06T01:55:59.289Z,15.55
2023-02-06T01:59:03.153Z,10.15
2023-02-06T02:02:06.495Z,10.07
2023-02-06T02:05:11.733Z,11.73
2023-02-06T02:08:30.638Z,11.88
2023-02-06T02:11:39.123Z,11.00
2023-02-06T02:14:44.572Z,11.95
2023-02-06T02:18:04.706Z,11.07
2023-02-06T02:21:41.651Z,11.02
2023-02-06T02:25:22.606Z,6.57
2023-02-06T02:28:46.119Z,13.43
2023-02-06T02:31:49.826Z,12.27
2023-02-06T02:35:14.268Z,10.03
2023-02-06T02:38:50.550Z,11.02
2023-02-06T02:42:20.613Z,11.20
2023-02-06T02:45:42.550Z,11.05
2023-02-06T02:48:50.121Z,11.40
2023-02-06T02:51:54.621Z,9.82
2023-02-06T02:54:57.832Z,10.15
2023-02-06T02:58:09.230Z,14.47
2023-02-06T03:01:20.170Z,10.98
2023-02-06T03:04:31.832Z,12.38
2023-02-06T03:07:53.740Z,10.87
2023-02-06T03:11:14.961Z,12.35
2023-02-06T03:14:34.152Z,11.95
2023-02-06T03:17:46.520Z,11.35
2023-02-06T03:20:51.496Z,12.07
2023-02-06T03:23:59.691Z,10.82
2023-02-06T03:27:07.679Z,10.48
2023-02-06T03:30:14.102Z,12.30
2023-02-06T03:33:21.465Z,10.88
2023-02-06T03:36:24.996Z,12.15
2023-02-06T03:39:28.377Z,9.63
2023-02-06T03:42:33.916Z,9.32
2023-02-06T03:45:49.344Z,9.27
2023-02-06T03:48:58.346Z,12.88
2023-02-06T03:52:09.399Z,13.15
2023-02-06T03:55:18.058Z,13.18
2023-02-06T03:58:23.278Z,13.15
2023-02-06T04:01:28.107Z,12.17
2023-02-06T04:04:37.618Z,13.57
2023-02-06T04:07:41.067Z,11.10
2023-02-06T04:10:44.346Z,8.83
2023-02-06T04:13:47.590Z,13.70
2023-02-06T04:16:51.074Z,12.93
2023-02-06T04:19:54.303Z,13.20
2023-02-06T04:22:58.583Z,10.40
2023-02-06T04:26:01.787Z,10.18
2023-02-06T04:29:05.168Z,9.80
2023-02-06T04:32:08.909Z,11.20
2023-02-06T04:35:12.091Z,10.57
2023-02-06T04:38:15.486Z,9.77
2023-02-06T04:41:18.677Z,12.60
2023-02-06T04:44:22.059Z,12.35
2023-02-06T04:47:25.313Z,14.43
2023-02-06T04:50:31.423Z,14.77
2023-02-06T04:53:34.970Z,11.90
2023-02-06T04:56:38.224Z,11.38
2023-02-06T04:59:41.514Z,13.93
2023-02-06T05:02:45.198Z,13.43
2023-02-06T05:05:48.513Z,13.25
2023-02-06T05:08:51.704Z,9.73
2023-02-06T05:11:54.928Z,12.97
2023-02-06T05:14:58.079Z,11.50
2023-02-06T05:18:04.416Z,15.40
2023-02-06T05:21:08.371Z,12.40
2023-02-06T05:24:13.048Z,13.18
2023-02-06T05:27:16.385Z,14.45
2023-02-06T05:30:19.861Z,13.07
2023-02-06T05:33:23.421Z,12.53
2023-02-06T05:36:26.626Z,13.27
2023-02-06T05:39:29.924Z,14.13
2023-02-06T05:42:33.558Z,13.90
2023-02-06T05:45:37.351Z,16.73
2023-02-06T05:48:41.041Z,16.75
2023-02-06T05:51:44.479Z,13.57
2023-02-06T05:54:47.694Z,13.95
2023-02-06T05:57:51.034Z,15.05
2023-02-06T06:00:55.430Z,14.20
2023-02-06T06:03:59.083Z,14.40
2023-02-06T06:07:02.814Z,14.05
2023-02-06T06:10:06.861Z,13.95
2023-02-06T06:13:12.143Z,12.83
2023-02-06T06:16:15.687Z,12.73
2023-02-06T06:19:19.463Z,11.40
2023-02-06T06:22:22.719Z,12.85
2023-02-06T06:25:26.107Z,13.75
2023-02-06T06:28:29.986Z,15.57
2023-02-06T06:31:33.251Z,16.75
2023-02-06T06:34:36.869Z,13.90
2023-02-06T06:37:42.433Z,12.75
2023-02-06T06:40:51.988Z,13.27
2023-02-06T06:43:59.658Z,12.87
2023-02-06T06:47:05.677Z,13.95
2023-02-06T06:50:09.781Z,13.55
2023-02-06T06:53:13.268Z,13.85
2023-02-06T06:56:16.612Z,11.95
2023-02-06T06:59:22.428Z,10.32
2023-02-06T07:02:35.345Z,13.23
2023-02-06T07:05:39.612Z,9.30
2023-02-06T07:08:49.222Z,11.07
2023-02-06T07:11:52.936Z,11.73
2023-02-06T07:15:02.902Z,9.63
2023-02-06T07:18:15.009Z,12.40
2023-02-06T07:24:37.246Z,11.30
2023-02-06T07:27:40.512Z,11.48
2023-02-06T07:30:44.614Z,8.85
2023-02-06T07:33:48.358Z,11.60
2023-02-06T07:36:56.997Z,9.20
2023-02-06T07:40:00.339Z,10.05
2023-02-06T07:43:18.890Z,9.43
2023-02-06T07:46:22.260Z,11.17
2023-02-06T07:49:25.791Z,11.02
2023-02-06T07:52:29.025Z,9.15
2023-02-06T07:55:32.347Z,9.10
2023-02-06T07:58:35.584Z,9.88
2023-02-06T08:01:38.852Z,10.90
2023-02-06T08:04:42.942Z,11.07
2023-02-06T08:07:46.550Z,15.43
2023-02-06T08:10:55.122Z,11.05
2023-02-06T08:14:35.536Z,10.23
2023-02-06T08:17:49.252Z,10.40
2023-02-06T08:21:04.695Z,9.63
2023-02-06T08:24:27.456Z,9.90
2023-02-06T08:27:59.202Z,8.73
2023-02-06T08:32:01.150Z,10.07
2023-02-06T08:35:53.859Z,8.02
2023-02-06T08:39:28.065Z,9.65
2023-02-06T08:42:47.263Z,12.10
2023-02-06T08:46:14.122Z,11.23
2023-02-06T08:49:41.234Z,9.60
2023-02-06T08:53:00.427Z,10.47
2023-02-06T08:56:09.840Z,12.05
2023-02-06T08:59:15.795Z,9.63
2023-02-06T09:02:19.262Z,9.90
2023-02-06T09:05:32.465Z,10.05
2023-02-06T09:08:39.877Z,14.15
2023-02-06T09:11:46.232Z,11.55
2023-02-06T09:14:55.845Z,10.20
2023-02-06T09:17:59.041Z,12.80
2023-02-06T09:21:13.755Z,11.18
2023-02-06T09:24:17.130Z,11.43
2023-02-06T09:27:21.132Z,12.98
2023-02-06T09:30:24.890Z,12.60
2023-02-06T09:33:28.467Z,11.63
2023-02-06T09:36:33.839Z,12.07
2023-02-06T09:39:37.314Z,11.93
2023-02-06T09:42:43.520Z,10.60
2023-02-06T09:45:50.865Z,11.87
2023-02-06T09:48:59.478Z,12.15
2023-02-06T09:52:07.573Z,9.50
2023-02-06T09:55:32.219Z,10.80
2023-02-06T09:58:57.676Z,10.75
2023-02-06T10:02:22.593Z,11.02
2023-02-06T10:05:44.181Z,11.25
2023-02-06T10:08:58.267Z,13.13
2023-02-06T10:12:10.751Z,11.27
2023-02-06T10:15:26.154Z,10.40
2023-02-06T10:18:36.095Z,12.00
2023-02-06T10:21:44.075Z,11.50
2023-02-06T10:25:02.435Z,11.95
2023-02-06T10:28:29.054Z,10.80
2023-02-06T10:31:58.941Z,10.25
2023-02-06T10:35:20.138Z,11.43
2023-02-06T10:38:44.863Z,11.63
2023-02-06T10:41:54.661Z,13.23
2023-02-06T10:45:19.854Z,11.02
2023-02-06T10:48:38.195Z,11.20
2023-02-06T10:51:43.107Z,11.80
2023-02-06T10:54:57.149Z,11.10
2023-02-06T10:58:20.649Z,12.85
2023-02-06T11:01:28.084Z,9.57
2023-02-06T11:04:41.465Z,10.10
2023-02-06T11:07:48.360Z,11.23
2023-02-06T11:10:58.314Z,11.43
2023-02-06T11:14:05.700Z,12.98
2023-02-06T11:17:12.740Z,10.95
2023-02-06T11:20:29.569Z,10.88
2023-02-06T11:23:36.201Z,9.53
2023-02-06T11:26:46.532Z,13.02
2023-02-06T11:29:54.824Z,10.13
2023-02-06T11:33:07.896Z,11.17
2023-02-06T11:36:37.728Z,10.15
2023-02-06T11:39:48.869Z,12.70
2023-02-06T11:43:15.491Z,11.48
2023-02-06T11:46:20.430Z,10.52
2023-02-06T11:49:33.721Z,9.43
2023-02-06T11:52:46.971Z,10.77
2023-02-06T11:56:03.434Z,10.93
2023-02-06T11:59:23.337Z,11.57
2023-02-06T12:02:30.607Z,12.27
2023-02-06T12:05:40.189Z,11.60
2023-02-06T12:09:02.764Z,14.73
2023-02-06T12:12:20.597Z,8.55
2023-02-06T12:15:50.010Z,9.23
2023-02-06T12:18:56.211Z,9.20
2023-02-06T12:22:23.962Z,10.20
2023-02-06T12:25:52.587Z,8.73
2023-02-06T12:29:06.169Z,10.37
2023-02-06T12:32:19.526Z,9.13
2023-02-06T12:35:32.353Z,9.48
2023-02-06T12:39:01.076Z,8.93
2023-02-06T12:42:13.206Z,8.32
2023-02-06T12:45:19.626Z,9.55
2023-02-06T12:48:39.046Z,9.07
2023-02-06T12:51:52.337Z,11.48
2023-02-06T12:55:06.382Z,10.88
2023-02-06T12:58:36.784Z,9.32
2023-02-06T13:02:18.341Z,8.20
2023-02-06T13:05:44.436Z,17.77
2023-02-06T13:08:58.532Z,8.55
2023-02-06T13:12:13.808Z,10.03
2023-02-06T13:15:27.147Z,10.20
2023-02-06T13:18:44.617Z,12.98
2023-02-06T13:21:53.887Z,10.60
2023-02-06T13:24:58.974Z,10.68
2023-02-06T13:28:15.301Z,9.73
2023-02-06T13:31:24.328Z,9.95
2023-02-06T13:34:27.690Z,8.87
2023-02-06T13:37:44.052Z,9.50
2023-02-06T13:41:09.293Z,8.05
2023-02-06T13:44:31.532Z,10.25
2023-02-06T13:48:03.165Z,9.00
2023-02-06T13:51:38.945Z,9.63
2023-02-06T13:54:50.724Z,7.72
2023-02-06T13:58:26.651Z,10.60
2023-02-06T14:01:31.586Z,8.80
2023-02-06T14:04:35.057Z,9.02
2023-02-06T14:07:53.361Z,8.50
2023-02-06T14:12:12.605Z,9.52
2023-02-06T14:15:36.689Z,8.73
2023-02-06T14:19:14.919Z,8.95
2023-02-06T14:22:49.743Z,9.70
2023-02-06T14:26:08.647Z,9.82
2023-02-06T14:29:36.725Z,10.07
2023-02-06T14:32:47.786Z,7.50
2023-02-06T14:36:19.555Z,8.38
2023-02-06T14:39:48.893Z,8.38
2023-02-06T14:42:56.898Z,12.27
2023-02-06T14:46:07.879Z,7.10
2023-02-06T14:49:22.252Z,10.02
2023-02-06T14:52:28.497Z,9.65
2023-02-06T14:55:39.614Z,8.82
2023-02-06T14:58:49.057Z,11.75
2023-02-06T15:01:57.750Z,9.65
2023-02-06T15:05:02.334Z,9.77
2023-02-06T15:08:07.013Z,8.80
2023-02-06T15:11:20.802Z,11.93
2023-02-06T15:14:32.474Z,10.40
2023-02-06T15:17:35.785Z,8.68
2023-02-06T15:20:45.820Z,10.55
2023-02-06T15:23:56.176Z,14.95
2023-02-06T15:27:05.404Z,8.32
2023-02-06T15:30:18.321Z,8.98
2023-02-06T15:33:27.083Z,9.27
2023-02-06T15:36:34.246Z,9.00
2023-02-06T15:39:40.366Z,12.05
2023-02-06T15:42:43.857Z,9.77
2023-02-06T15:45:50.268Z,10.70
2023-02-06T15:48:57.350Z,10.85
2023-02-06T15:52:04.655Z,8.65
2023-02-06T15:55:21.047Z,10.73
2023-02-06T15:58:30.095Z,8.55
2023-02-06T16:01:39.709Z,9.95
2023-02-06T16:04:43.052Z,12.10
2023-02-06T16:07:52.097Z,10.40
2023-02-06T16:11:07.237Z,10.82
2023-02-06T16:14:20.860Z,9.80
2023-02-06T16:17:34.177Z,13.03
2023-02-06T16:20:42.879Z,13.35
2023-02-06T16:23:47.493Z,10.27
2023-02-06T16:26:54.798Z,13.80
2023-02-06T16:29:58.467Z,11.32
2023-02-06T16:33:16.940Z,14.23
2023-02-06T16:36:23.529Z,13.18
2023-02-06T16:39:26.767Z,11.03
2023-02-06T16:42:38.032Z,12.02
2023-02-06T16:45:41.289Z,13.32
2023-02-06T16:48:44.597Z,14.13
2023-02-06T16:51:49.769Z,13.45
2023-02-06T16:54:55.772Z,13.73
2023-02-06T16:58:01.407Z,12.55
2023-02-06T17:01:08.463Z,11.65
2023-02-06T17:04:11.993Z,13.63
2023-02-06T17:07:21.953Z,11.95
2023-02-06T17:10:26.867Z,11.93
2023-02-06T17:13:30.226Z,12.65
2023-02-06T17:16:33.798Z,9.98
2023-02-06T17:19:37.155Z,10.93
2023-02-06T17:22:40.466Z,10.43
2023-02-06T17:25:45.397Z,12.63
2023-02-06T17:28:49.861Z,12.48
2023-02-06T17:31:53.125Z,11.10
2023-02-06T17:34:58.219Z,12.05
2023-02-06T17:38:01.463Z,12.98
2023-02-06T17:41:04.897Z,11.47
2023-02-06T17:44:08.378Z,14.95
2023-02-06T17:47:11.882Z,12.38
2023-02-06T17:50:18.100Z,13.90
2023-02-06T17:53:21.474Z,13.80
2023-02-06T17:56:24.916Z,15.57
2023-02-06T17:59:28.843Z,13.63
2023-02-06T18:02:32.871Z,11.43
2023-02-06T18:05:36.347Z,12.85
2023-02-06T18:08:40.697Z,12.65
2023-02-06T18:11:44.372Z,13.63
2023-02-06T18:14:50.073Z,13.02
2023-02-06T18:17:54.892Z,15.85
2023-02-06T18:20:59.574Z,14.40
2023-02-06T18:24:02.986Z,14.35
2023-02-06T18:27:08.598Z,12.32
2023-02-06T18:30:12.704Z,14.88
2023-02-06T18:33:16.219Z,16.65
2023-02-06T18:36:20.115Z,15.48
2023-02-06T18:39:23.577Z,12.27
2023-02-06T18:42:45.640Z,14.73
2023-02-06T18:45:49.354Z,14.45
2023-02-06T18:48:54.965Z,16.77
2023-02-06T18:51:58.390Z,16.37
2023-02-06T18:55:01.909Z,17.38
2023-02-06T18:58:06.304Z,15.98
2023-02-06T19:01:13.882Z,17.00
2023-02-06T19:04:18.474Z,14.10
2023-02-06T19:07:21.846Z,13.10
2023-02-06T19:10:25.911Z,13.52
2023-02-06T19:13:29.444Z,13.57
2023-02-06T19:16:34.243Z,16.55
2023-02-06T19:19:37.724Z,13.70
2023-02-06T19:22:41.127Z,14.73
2023-02-06T19:25:44.505Z,13.75
2023-02-06T19:28:48.047Z,16.23
2023-02-06T19:31:51.465Z,18.42
2023-02-06T19:34:55.207Z,13.57
2023-02-06T19:37:59.714Z,13.82
2023-02-06T19:41:08.179Z,17.27
2023-02-06T19:44:13.920Z,17.50
2023-02-06T19:47:17.465Z,17.08
2023-02-06T19:50:21.175Z,17.90
2023-02-06T19:53:24.603Z,16.37
2023-02-06T19:56:32.959Z,14.52
2023-02-06T19:59:36.447Z,14.98
2023-02-06T20:02:40.472Z,17.25
2023-02-06T20:05:44.473Z,17.15
2023-02-06T20:08:48.130Z,19.42
2023-02-06T20:11:51.677Z,20.27
2023-02-06T20:14:54.873Z,18.87
2023-02-06T20:17:58.773Z,20.33
2023-02-06T20:21:03.699Z,16.88
2023-02-06T20:24:11.749Z,16.97
2023-02-06T20:27:17.018Z,19.52
2023-02-06T20:30:22.140Z,18.08
2023-02-06T20:33:25.636Z,21.73
2023-02-06T20:36:29.879Z,17.17
2023-02-06T20:39:34.546Z,22.67
2023-02-06T20:42:42.165Z,16.83
2023-02-06T20:45:45.349Z,17.33
2023-02-06T20:48:58.157Z,22.00
2023-02-06T20:52:03.296Z,18.42
2023-02-06T20:55:07.697Z,14.77
2023-02-06T20:58:11.339Z,15.55
2023-02-06T21:01:17.964Z,15.52
2023-02-06T21:04:21.772Z,15.63
2023-02-06T21:07:24.936Z,16.15
2023-02-06T21:10:29.080Z,15.40
2023-02-06T21:13:32.610Z,17.63
2023-02-06T21:16:37.853Z,14.40
2023-02-06T21:19:41.102Z,18.33
2023-02-06T21:22:44.681Z,14.00
2023-02-06T21:25:52.461Z,16.43
2023-02-06T21:28:56.175Z,15.82
2023-02-06T21:32:12.688Z,14.07
2023-02-06T21:35:17.010Z,16.52
2023-02-06T21:38:21.004Z,13.32
2023-02-06T21:41:24.584Z,16.13
2023-02-06T21:44:28.831Z,13.82
2023-02-06T21:47:32.025Z,18.87
2023-02-06T21:50:39.011Z,16.88
2023-02-06T21:53:43.415Z,15.43
2023-02-06T21:56:46.683Z,16.90
2023-02-06T21:59:49.910Z,15.18
2023-02-06T22:02:53.155Z,15.88
2023-02-06T22:06:01.069Z,19.83
2023-02-06T22:09:07.822Z,19.05
2023-02-06T22:12:11.042Z,15.40
2023-02-06T22:15:14.313Z,15.95
2023-02-06T22:18:17.644Z,18.60
2023-02-06T22:21:23.369Z,16.80
2023-02-06T22:24:26.573Z,15.93
2023-02-06T22:27:32.543Z,15.33
2023-02-06T22:30:35.852Z,17.70
2023-02-06T22:33:39.296Z,15.32
2023-02-06T22:36:44.566Z,16.70
2023-02-06T22:39:47.827Z,17.48
2023-02-06T22:42:51.196Z,15.38
2023-02-06T22:45:54.408Z,16.08
2023-02-06T22:48:57.764Z,13.17
2023-02-06T22:52:01.016Z,16.17
2023-02-06T22:55:05.823Z,14.75
2023-02-06T22:58:09.103Z,14.60
2023-02-06T23:01:13.311Z,13.77
2023-02-06T23:04:25.096Z,14.95
2023-02-06T23:07:28.240Z,15.68
2023-02-06T23:10:31.577Z,15.52
2023-02-06T23:13:35.561Z,13.00
2023-02-06T23:16:39.004Z,15.25
2023-02-06T23:19:42.399Z,17.20
2023-02-06T23:22:45.628Z,17.95
2023-02-06T23:25:48.917Z,17.60
2023-02-06T23:28:52.194Z,15.77
2023-02-06T23:31:56.948Z,19.58
2023-02-06T23:35:00.164Z,19.38
2023-02-06T23:38:03.891Z,18.38
2023-02-06T23:41:15.441Z,17.48
2023-02-06T23:44:19.099Z,16.83
2023-02-06T23:47:22.382Z,17.58
2023-02-06T23:50:27.640Z,18.70
2023-02-06T23:53:31.047Z,18.70
2023-02-06T23:56:34.513Z,19.02
2023-02-06T23:59:38.011Z,15.97
